createdAt,value
2016-08-16T06:05:50.118Z,2948
2016-08-16T06:06:50.830Z,2912
2016-08-16T06:07:51.504Z,2880
2016-08-16T06:08:51.500Z,2856
2016-08-16T06:09:50.746Z,2872
2016-08-16T06:10:51.517Z,2968
2016-08-16T06:11:50.727Z,3120
2016-08-16T06:12:51.440Z,3276
2016-08-16T06:13:50.710Z,3508
2016-08-16T06:14:50.679Z,3588
2016-08-16T06:15:51.404Z,3620
2016-08-16T06:16:51.389Z,3696
2016-08-16T06:17:50.652Z,3800
2016-08-16T06:18:51.340Z,3876
2016-08-16T06:19:49.901Z,3932
2016-08-16T06:20:51.310Z,3932
2016-08-16T06:21:51.292Z,3944
2016-08-16T06:22:51.280Z,4152
2016-08-16T06:23:50.561Z,4272
2016-08-16T06:24:50.538Z,4312
2016-08-16T06:25:50.513Z,4352
2016-08-16T06:26:50.509Z,4392
2016-08-16T06:27:51.216Z,4392
2016-08-16T06:28:50.478Z,4388
2016-08-16T06:29:51.198Z,4388
2016-08-16T06:30:51.221Z,4388
2016-08-16T06:31:50.437Z,4396
2016-08-16T06:32:51.190Z,4404
2016-08-16T06:33:50.411Z,4396
2016-08-16T06:34:51.138Z,4376
2016-08-16T06:35:49.690Z,4360
2016-08-16T06:36:51.074Z,4384
2016-08-16T06:37:50.369Z,4384
2016-08-16T06:38:50.323Z,4448
2016-08-16T06:39:51.021Z,4664
2016-08-16T06:40:48.866Z,4812
2016-08-16T06:41:51.031Z,4880
2016-08-16T06:42:51.000Z,4928
2016-08-16T06:43:50.991Z,4956
2016-08-16T06:44:50.242Z,4972
2016-08-16T06:45:50.950Z,4980
2016-08-16T06:46:50.938Z,4960
2016-08-16T06:47:50.931Z,4936
2016-08-16T06:48:50.401Z,4904
2016-08-16T06:49:50.896Z,4892
2016-08-16T06:50:50.883Z,4884
2016-08-16T06:51:50.159Z,4868
2016-08-16T06:52:50.161Z,4848
2016-08-16T06:53:49.413Z,4820
2016-08-16T06:54:50.827Z,4816
2016-08-16T06:55:50.821Z,4812
2016-08-16T06:56:50.100Z,4828
2016-08-16T06:57:50.785Z,4852
2016-08-16T06:58:50.069Z,4848
2016-08-16T06:59:50.758Z,4828
2016-08-16T07:00:50.017Z,4908
2016-08-16T07:01:50.720Z,4928
2016-08-16T07:02:49.280Z,5008
2016-08-16T07:03:50.081Z,5232
2016-08-16T07:04:50.693Z,5144
2016-08-16T07:05:50.672Z,5196
2016-08-16T07:06:50.666Z,5168
2016-08-16T07:07:50.720Z,5972
2016-08-16T07:08:50.635Z,5520
2016-08-16T07:09:50.646Z,5644
2016-08-16T07:10:50.604Z,5832
2016-08-16T07:11:50.600Z,6200
2016-08-16T07:12:49.865Z,6740
2016-08-16T07:13:49.191Z,6984
2016-08-16T07:14:49.866Z,7220
2016-08-16T07:15:49.836Z,7572
2016-08-16T07:16:50.528Z,8020
2016-08-16T07:17:50.512Z,10992
2016-08-16T07:18:50.510Z,24352
2016-08-16T07:19:50.546Z,43168
2016-08-16T07:20:50.468Z,57952
2016-08-16T07:21:50.531Z,71136
2016-08-16T07:22:50.447Z,59264
2016-08-16T07:23:49.742Z,35648
2016-08-16T07:24:48.980Z,16268
2016-08-16T07:25:49.688Z,9572
2016-08-16T07:26:50.411Z,9156
2016-08-16T07:27:48.941Z,8712
2016-08-16T07:28:49.680Z,8692
2016-08-16T07:29:50.362Z,8852
2016-08-16T07:30:50.349Z,9024
2016-08-16T07:31:50.355Z,9232
2016-08-16T07:32:50.320Z,9400
2016-08-16T07:33:49.603Z,9476
2016-08-16T07:34:49.597Z,9584
2016-08-16T07:35:49.583Z,9928
2016-08-16T07:36:49.585Z,10092
2016-08-16T07:37:50.271Z,10432
2016-08-16T07:38:49.562Z,10716
2016-08-16T07:39:50.271Z,11624
2016-08-16T07:40:50.290Z,13392
2016-08-16T07:41:50.280Z,15276
2016-08-16T07:42:50.260Z,48800
2016-08-16T07:43:49.539Z,89088
2016-08-16T07:44:49.522Z,97728
2016-08-16T07:45:50.252Z,97504
2016-08-16T07:46:49.580Z,96640
2016-08-16T07:47:49.506Z,98624
2016-08-16T07:48:49.537Z,102400
2016-08-16T07:49:49.492Z,101984
2016-08-16T07:50:50.550Z,98560
2016-08-16T07:51:50.207Z,94272
2016-08-16T07:52:49.496Z,96352
2016-08-16T07:53:49.492Z,99616
2016-08-16T07:54:50.208Z,96352
2016-08-16T07:55:50.218Z,75232
2016-08-16T07:56:50.210Z,95776
2016-08-16T07:57:50.207Z,94464
2016-08-16T07:58:48.775Z,92832
2016-08-16T07:59:49.497Z,89312
2016-08-16T08:00:50.221Z,89504
2016-08-16T08:01:49.509Z,90496
2016-08-16T08:02:49.497Z,88096
2016-08-16T08:03:50.209Z,82624
2016-08-16T08:04:50.194Z,81568
2016-08-16T08:05:50.208Z,79456
2016-08-16T08:06:49.489Z,81344
2016-08-16T08:07:50.204Z,87936
2016-08-16T08:08:49.487Z,88704
2016-08-16T08:09:49.605Z,80192
2016-08-16T08:10:48.792Z,72384
2016-08-16T08:11:50.204Z,79968
2016-08-16T08:12:49.489Z,89120
2016-08-16T08:13:50.231Z,88640
2016-08-16T08:14:50.231Z,80128
2016-08-16T08:15:48.770Z,79360
2016-08-16T08:16:50.222Z,83936
2016-08-16T08:17:50.216Z,78592
2016-08-16T08:18:49.481Z,77792
2016-08-16T08:19:49.491Z,80608
2016-08-16T08:20:49.500Z,88032
2016-08-16T08:21:49.551Z,86528
2016-08-16T08:22:50.207Z,85728
2016-08-16T08:23:48.848Z,85280
2016-08-16T08:24:49.501Z,72192
2016-08-16T08:25:50.216Z,71104
2016-08-16T08:26:50.206Z,74208
2016-08-16T08:27:49.508Z,74240
2016-08-16T08:28:48.816Z,69536
2016-08-16T08:29:49.506Z,67392
2016-08-16T08:30:50.207Z,65792
2016-08-16T08:31:50.308Z,70976
2016-08-16T08:32:49.506Z,72480
2016-08-16T08:33:50.217Z,69856
2016-08-16T08:34:48.835Z,69184
2016-08-16T08:35:50.232Z,73376
2016-08-16T08:36:49.517Z,76928
2016-08-16T08:37:49.504Z,77504
2016-08-16T08:38:48.857Z,80960
2016-08-16T08:39:50.270Z,72032
2016-08-16T08:40:50.241Z,73440
2016-08-16T08:41:49.529Z,78016
2016-08-16T08:42:50.237Z,81600
2016-08-16T08:43:50.243Z,79200
2016-08-16T08:44:49.533Z,75456
2016-08-16T08:45:50.267Z,80896
2016-08-16T08:46:50.240Z,87104
2016-08-16T08:47:50.247Z,87744
2016-08-16T08:48:50.255Z,84128
2016-08-16T08:49:50.257Z,81280
2016-08-16T08:50:49.543Z,82656
2016-08-16T08:51:49.550Z,82112
2016-08-16T08:52:50.256Z,81312
2016-08-16T08:53:50.278Z,74656
2016-08-16T08:54:49.547Z,68992
2016-08-16T08:55:50.374Z,77088
2016-08-16T08:56:49.572Z,80864
2016-08-16T08:57:49.564Z,83968
2016-08-16T08:58:50.370Z,77728
2016-08-16T08:59:48.846Z,69120
2016-08-16T09:00:50.288Z,79840
2016-08-16T09:01:49.574Z,17060
2016-08-16T09:02:48.848Z,11400
2016-08-16T09:03:49.651Z,72160
2016-08-16T09:04:50.329Z,74272
2016-08-16T09:05:49.581Z,72640
2016-08-16T09:06:50.308Z,66592
2016-08-16T09:07:49.606Z,61664
2016-08-16T09:08:49.580Z,69952
2016-08-16T09:09:50.366Z,71104
2016-08-16T09:10:50.328Z,77280
2016-08-16T09:11:48.896Z,79872
2016-08-16T09:12:50.616Z,72160
2016-08-16T09:13:50.367Z,76928
2016-08-16T09:14:49.600Z,54592
2016-08-16T09:15:50.330Z,25504
2016-08-16T09:16:48.897Z,17120
2016-08-16T09:17:50.446Z,16312
2016-08-16T09:18:50.324Z,10544
2016-08-16T09:19:49.640Z,32928
2016-08-16T09:20:49.611Z,12296
2016-08-16T09:21:50.346Z,79584
2016-08-16T09:22:50.317Z,79520
2016-08-16T09:23:50.327Z,19136
2016-08-16T09:24:49.656Z,77888
2016-08-16T09:25:50.335Z,77088
2016-08-16T09:26:48.919Z,77024
2016-08-16T09:27:50.330Z,69440
2016-08-16T09:28:49.608Z,75488
2016-08-16T09:29:50.315Z,78592
2016-08-16T09:30:50.397Z,77824
2016-08-16T09:31:49.613Z,75200
2016-08-16T09:32:48.926Z,72480
2016-08-16T09:33:50.618Z,68704
2016-08-16T09:34:50.355Z,67136
2016-08-16T09:35:49.602Z,66400
2016-08-16T09:36:49.617Z,64864
2016-08-16T09:37:50.329Z,70528
2016-08-16T09:38:48.190Z,69856
2016-08-16T09:39:49.627Z,67200
2016-08-16T09:40:50.336Z,67552
2016-08-16T09:41:48.904Z,64256
2016-08-16T09:42:50.451Z,65536
2016-08-16T09:43:49.627Z,63584
2016-08-16T09:44:50.396Z,62624
2016-08-16T09:45:49.640Z,64096
2016-08-16T09:46:49.625Z,66144
2016-08-16T09:47:50.362Z,61536
2016-08-16T09:48:49.916Z,58112
2016-08-16T09:49:49.646Z,60480
2016-08-16T09:50:50.363Z,61120
2016-08-16T09:51:48.989Z,61344
2016-08-16T09:52:49.634Z,62528
2016-08-16T09:53:49.650Z,39520
2016-08-16T09:54:50.380Z,62624
2016-08-16T09:55:50.361Z,62240
2016-08-16T09:56:50.369Z,59520
2016-08-16T09:57:50.369Z,58336
2016-08-16T09:58:50.369Z,55424
2016-08-16T09:59:50.368Z,53280
2016-08-16T10:00:49.656Z,53728
2016-08-16T10:01:50.411Z,54656
2016-08-16T10:02:49.655Z,57024
2016-08-16T10:03:50.370Z,56704
2016-08-16T10:04:49.660Z,55968
2016-08-16T10:05:50.369Z,54944
2016-08-16T10:06:48.240Z,52128
2016-08-16T10:07:49.667Z,52192
2016-08-16T10:08:49.733Z,50880
2016-08-16T10:09:50.391Z,52064
2016-08-16T10:10:50.369Z,52160
2016-08-16T10:11:49.779Z,50848
2016-08-16T10:12:50.378Z,38400
2016-08-16T10:13:49.687Z,23456
2016-08-16T10:14:49.660Z,44128
2016-08-16T10:15:49.665Z,45888
2016-08-16T10:16:49.658Z,8604
2016-08-16T10:17:50.388Z,9480
2016-08-16T10:18:50.376Z,38560
2016-08-16T10:19:49.659Z,15328
2016-08-16T10:20:49.017Z,12608
2016-08-16T10:21:50.366Z,12188
2016-08-16T10:22:50.431Z,11988
2016-08-16T10:23:50.366Z,11992
2016-08-16T10:24:50.367Z,12212
2016-08-16T10:25:50.361Z,12864
2016-08-16T10:26:49.660Z,13112
2016-08-16T10:27:49.638Z,13764
2016-08-16T10:28:50.367Z,14500
2016-08-16T10:29:49.633Z,11324
2016-08-16T10:30:50.349Z,14112
2016-08-16T10:31:50.335Z,9884
2016-08-16T10:32:49.629Z,11528
2016-08-16T10:33:49.621Z,11332
2016-08-16T10:34:50.370Z,11288
2016-08-16T10:35:50.346Z,11488
2016-08-16T10:36:49.618Z,11844
2016-08-16T10:37:49.679Z,12268
2016-08-16T10:38:49.604Z,12928
2016-08-16T10:39:49.676Z,13148
2016-08-16T10:40:50.304Z,8464
2016-08-16T10:41:50.347Z,8824
2016-08-16T10:42:49.597Z,12652
2016-08-16T10:43:50.290Z,12692
2016-08-16T10:44:50.302Z,12928
2016-08-16T10:45:50.287Z,13160
2016-08-16T10:46:49.573Z,12960
2016-08-16T10:47:50.316Z,12144
2016-08-16T10:48:48.865Z,11512
2016-08-16T10:49:49.569Z,11276
2016-08-16T10:50:49.558Z,11032
2016-08-16T10:51:48.894Z,10732
2016-08-16T10:52:48.836Z,10420
2016-08-16T10:53:48.836Z,10208
2016-08-16T10:54:48.824Z,10084
2016-08-16T10:55:49.559Z,10232
2016-08-16T10:56:50.254Z,8724
2016-08-16T10:57:49.537Z,9920
2016-08-16T10:58:50.490Z,10040
2016-08-16T10:59:50.256Z,10660
2016-08-16T11:00:50.243Z,10184
2016-08-16T11:01:49.512Z,9988
2016-08-16T11:02:48.810Z,10608
2016-08-16T11:03:49.515Z,11092
2016-08-16T11:04:50.217Z,10368
2016-08-16T11:05:50.209Z,6824
2016-08-16T11:06:49.516Z,7208
2016-08-16T11:08:48.779Z,11920
2016-08-16T11:09:49.484Z,11408
2016-08-16T11:10:49.563Z,11288
2016-08-16T11:11:49.478Z,7392
2016-08-16T11:12:48.790Z,7164
2016-08-16T11:13:50.169Z,7568
2016-08-16T11:14:49.449Z,9452
2016-08-16T11:15:50.189Z,8388
2016-08-16T11:16:49.516Z,7700
2016-08-16T11:17:49.437Z,10368
2016-08-16T11:18:50.155Z,10136
2016-08-16T11:19:50.169Z,10012
2016-08-16T11:20:49.427Z,9320
2016-08-16T11:21:49.423Z,9788
2016-08-16T11:22:50.126Z,9804
2016-08-16T11:23:49.418Z,9908
2016-08-16T11:24:50.169Z,9996
2016-08-16T11:25:50.133Z,9900
2016-08-16T11:26:49.431Z,9892
2016-08-16T11:27:49.409Z,9872
2016-08-16T11:28:50.132Z,9948
2016-08-16T11:29:49.382Z,9964
2016-08-16T11:30:50.096Z,9920
2016-08-16T11:31:50.098Z,9788
2016-08-16T11:32:50.136Z,9812
2016-08-16T11:33:48.710Z,6440
2016-08-16T11:34:50.096Z,9948
2016-08-16T11:35:48.627Z,9636
2016-08-16T11:36:50.049Z,9668
2016-08-16T11:37:50.065Z,9676
2016-08-16T11:38:49.332Z,9828
2016-08-16T11:39:49.330Z,9828
2016-08-16T11:40:50.037Z,9680
2016-08-16T11:41:50.027Z,9500
2016-08-16T11:42:49.318Z,9436
2016-08-16T11:43:50.031Z,9324
2016-08-16T11:44:49.309Z,9320
2016-08-16T11:45:47.868Z,9352
2016-08-16T11:46:50.012Z,9380
2016-08-16T11:47:49.998Z,9368
2016-08-16T11:48:49.999Z,9300
2016-08-16T11:49:50.006Z,9252
2016-08-16T11:50:49.272Z,9172
2016-08-16T11:51:49.273Z,9220
2016-08-16T11:52:49.986Z,9280
2016-08-16T11:53:49.257Z,9304
2016-08-16T11:54:49.964Z,9360
2016-08-16T11:55:50.040Z,9368
2016-08-16T11:56:49.258Z,9556
2016-08-16T11:57:49.954Z,9784
2016-08-16T11:58:49.242Z,9964
2016-08-16T11:59:49.242Z,9476
2016-08-16T12:00:47.802Z,5276
2016-08-16T12:01:49.265Z,5244
2016-08-16T12:02:49.935Z,5068
2016-08-16T12:03:49.206Z,4840
2016-08-16T12:04:48.490Z,4772
2016-08-16T12:05:49.203Z,5012
2016-08-16T12:06:49.906Z,5548
2016-08-16T12:07:49.913Z,8724
2016-08-16T12:08:49.925Z,11504
2016-08-16T12:09:49.182Z,11656
2016-08-16T12:10:49.915Z,11740
2016-08-16T12:11:49.183Z,11628
2016-08-16T12:12:49.887Z,11900
2016-08-16T12:13:49.973Z,11796
2016-08-16T12:14:49.870Z,11640
2016-08-16T12:15:49.869Z,11800
2016-08-16T12:16:49.157Z,11920
2016-08-16T12:17:49.858Z,12052
2016-08-16T12:18:49.161Z,11820
2016-08-16T12:19:49.867Z,11508
2016-08-16T12:20:49.869Z,10060
2016-08-16T12:21:49.146Z,10596
2016-08-16T12:22:49.839Z,11128
2016-08-16T12:23:48.393Z,9772
2016-08-16T12:24:48.415Z,5460
2016-08-16T12:25:49.819Z,5072
2016-08-16T12:26:49.818Z,4880
2016-08-16T12:27:49.831Z,4972
2016-08-16T12:28:49.082Z,5180
2016-08-16T12:29:48.363Z,5160
2016-08-16T12:30:49.067Z,5072
2016-08-16T12:31:49.788Z,5280
2016-08-16T12:32:49.884Z,10956
2016-08-16T12:33:49.067Z,11088
2016-08-16T12:34:49.068Z,11144
2016-08-16T12:35:49.045Z,5956
2016-08-16T12:36:49.795Z,11416
2016-08-16T12:37:49.766Z,10648
2016-08-16T12:38:49.038Z,8840
2016-08-16T12:39:49.756Z,11412
2016-08-16T12:40:49.022Z,11252
2016-08-16T12:41:49.002Z,10848
2016-08-16T12:42:49.731Z,6012
2016-08-16T12:43:49.747Z,7968
2016-08-16T12:44:49.007Z,6720
2016-08-16T12:45:49.004Z,9244
2016-08-16T12:46:48.975Z,9724
2016-08-16T12:47:48.267Z,11544
2016-08-16T12:48:48.977Z,11072
2016-08-16T12:49:49.693Z,5712
2016-08-16T12:50:49.691Z,5368
2016-08-16T12:51:47.539Z,5216
2016-08-16T12:52:49.674Z,5208
2016-08-16T12:53:49.673Z,7820
2016-08-16T12:54:49.654Z,6236
2016-08-16T12:55:49.659Z,5988
2016-08-16T12:56:48.219Z,5708
2016-08-16T12:57:49.640Z,7028
2016-08-16T12:58:49.655Z,5924
2016-08-16T12:59:49.642Z,7808
2016-08-16T13:00:48.918Z,6068
2016-08-16T13:01:49.642Z,7080
2016-08-16T13:02:48.883Z,5868
2016-08-16T13:03:48.884Z,11144
2016-08-16T13:04:48.884Z,10844
2016-08-16T13:05:48.164Z,10776
2016-08-16T13:06:48.240Z,10560
2016-08-16T13:07:49.583Z,10560
2016-08-16T13:08:48.864Z,10492
2016-08-16T13:09:49.588Z,9152
2016-08-16T13:10:48.884Z,9468
2016-08-16T13:11:48.856Z,9444
2016-08-16T13:12:49.546Z,9860
2016-08-16T13:13:49.605Z,9724
2016-08-16T13:14:48.817Z,9432
2016-08-16T13:15:48.821Z,9084
2016-08-16T13:16:49.529Z,5096
2016-08-16T13:17:48.095Z,3964
2016-08-16T13:18:49.521Z,3820
2016-08-16T13:19:48.807Z,3776
2016-08-16T13:20:49.518Z,3820
2016-08-16T13:21:48.799Z,3876
2016-08-16T13:22:48.787Z,3700
2016-08-16T13:23:49.485Z,3680
2016-08-16T13:24:48.064Z,3876
2016-08-16T13:25:49.488Z,4264
2016-08-16T13:26:48.753Z,4652
2016-08-16T13:27:48.044Z,6184
2016-08-16T13:28:48.741Z,10444
2016-08-16T13:29:49.684Z,10080
2016-08-16T13:30:48.734Z,10268
2016-08-16T13:31:49.478Z,10504
2016-08-16T13:32:48.709Z,10480
2016-08-16T13:33:48.724Z,10596
2016-08-16T13:34:48.706Z,10512
2016-08-16T13:35:49.426Z,10328
2016-08-16T13:36:48.688Z,10188
2016-08-16T13:37:48.686Z,9868
2016-08-16T13:38:48.784Z,10024
2016-08-16T13:39:48.668Z,10160
2016-08-16T13:40:48.729Z,10224
2016-08-16T13:41:48.663Z,10228
2016-08-16T13:42:48.668Z,10224
2016-08-16T13:43:49.377Z,10212
2016-08-16T13:44:49.394Z,10016
2016-08-16T13:45:47.204Z,9796
2016-08-16T13:46:48.636Z,9912
2016-08-16T13:47:49.358Z,5460
2016-08-16T13:48:49.436Z,4996
2016-08-16T13:49:49.321Z,9420
2016-08-16T13:50:47.949Z,5600
2016-08-16T13:51:48.603Z,4460
2016-08-16T13:52:49.345Z,4264
2016-08-16T13:53:48.606Z,4044
2016-08-16T13:54:49.314Z,3820
2016-08-16T13:55:48.598Z,3712
2016-08-16T13:56:49.293Z,3600
2016-08-16T13:57:48.566Z,3508
2016-08-16T13:58:49.279Z,3436
2016-08-16T13:59:48.573Z,3424
2016-08-16T14:00:49.260Z,3416
2016-08-16T14:01:49.254Z,3448
2016-08-16T14:02:47.826Z,3500
2016-08-16T14:03:49.243Z,3564
2016-08-16T14:04:49.263Z,3612
2016-08-16T14:05:48.504Z,3640
2016-08-16T14:06:47.798Z,3632
2016-08-16T14:07:48.519Z,4192
2016-08-16T14:08:47.784Z,3632
2016-08-16T14:09:49.213Z,3880
2016-08-16T14:10:49.191Z,5404
2016-08-16T14:11:47.759Z,4304
2016-08-16T14:12:49.193Z,4120
2016-08-16T14:13:48.458Z,4932
2016-08-16T14:14:48.449Z,7104
2016-08-16T14:15:48.569Z,7368
2016-08-16T14:16:47.739Z,7612
2016-08-16T14:17:49.187Z,8480
2016-08-16T14:18:49.146Z,8728
2016-08-16T14:19:47.723Z,8596
2016-08-16T14:20:48.407Z,8916
2016-08-16T14:21:47.775Z,9020
2016-08-16T14:22:48.390Z,9036
2016-08-16T14:23:49.124Z,8988
2016-08-16T14:24:49.091Z,8880
2016-08-16T14:25:48.393Z,8864
2016-08-16T14:26:49.112Z,8816
2016-08-16T14:27:48.363Z,8592
2016-08-16T14:28:48.358Z,8588
2016-08-16T14:29:48.366Z,8700
2016-08-16T14:30:49.068Z,8636
2016-08-16T14:31:49.084Z,8744
2016-08-16T14:32:47.634Z,8912
2016-08-16T14:33:48.326Z,8896
2016-08-16T14:34:49.038Z,8932
2016-08-16T14:35:47.614Z,8908
2016-08-16T14:36:48.311Z,8772
2016-08-16T14:37:48.298Z,8488
2016-08-16T14:38:47.587Z,4004
2016-08-16T14:39:48.308Z,3732
2016-08-16T14:40:48.986Z,6632
2016-08-16T14:41:48.290Z,6724
2016-08-16T14:42:48.300Z,5988
2016-08-16T14:43:48.985Z,7468
2016-08-16T14:44:47.682Z,7084
2016-08-16T14:45:48.962Z,7288
2016-08-16T14:46:48.256Z,7408
2016-08-16T14:47:47.531Z,7288
2016-08-16T14:48:48.249Z,7260
2016-08-16T14:49:48.289Z,5456
2016-08-16T14:50:48.934Z,3068
2016-08-16T14:51:47.486Z,2792
2016-08-16T14:52:48.918Z,2712
2016-08-16T14:53:48.190Z,6072
2016-08-16T14:54:48.916Z,5264
2016-08-16T14:55:48.192Z,5664
2016-08-16T14:56:49.099Z,6464
2016-08-16T14:57:48.869Z,3568
2016-08-16T14:58:48.173Z,2632
2016-08-16T14:59:47.517Z,3056
2016-08-16T15:00:47.466Z,6700
2016-08-16T15:01:47.438Z,6640
2016-08-16T15:02:48.856Z,6420
2016-08-16T15:03:48.134Z,6588
2016-08-16T15:04:48.165Z,6464
2016-08-16T15:05:48.117Z,6428
2016-08-16T15:06:48.106Z,6376
2016-08-16T15:07:48.087Z,6316
2016-08-16T15:08:48.100Z,6244
2016-08-16T15:09:48.155Z,6216
2016-08-16T15:10:48.793Z,6164
2016-08-16T15:11:48.789Z,6076
2016-08-16T15:12:48.075Z,6068
2016-08-16T15:13:47.341Z,5944
2016-08-16T15:14:48.771Z,5992
2016-08-16T15:15:48.778Z,5912
2016-08-16T15:16:48.063Z,5868
2016-08-16T15:17:48.731Z,5760
2016-08-16T15:18:47.316Z,5844
2016-08-16T15:19:48.118Z,5704
2016-08-16T15:20:48.732Z,5788
2016-08-16T15:21:48.019Z,5692
2016-08-16T15:22:47.996Z,5604
2016-08-16T15:23:48.026Z,5520
2016-08-16T15:24:48.047Z,5564
2016-08-16T15:25:47.258Z,5540
2016-08-16T15:26:47.967Z,5468
2016-08-16T15:27:48.686Z,5212
2016-08-16T15:28:47.252Z,4976
2016-08-16T15:29:48.027Z,5132
2016-08-16T15:30:47.949Z,5104
2016-08-16T15:31:47.946Z,5008
2016-08-16T15:32:47.213Z,4936
2016-08-16T15:33:47.990Z,4924
2016-08-16T15:34:48.631Z,4848
2016-08-16T15:35:47.213Z,4796
2016-08-16T15:36:48.623Z,4724
2016-08-16T15:37:47.898Z,4768
2016-08-16T15:38:47.240Z,4632
2016-08-16T15:39:47.177Z,4296
2016-08-16T15:40:48.595Z,4544
2016-08-16T15:41:47.226Z,4540
2016-08-16T15:42:48.559Z,4364
2016-08-16T15:43:47.848Z,4408
2016-08-16T15:44:47.847Z,4216
2016-08-16T15:45:47.845Z,4168
2016-08-16T15:46:47.856Z,4248
2016-08-16T15:47:47.828Z,4552
2016-08-16T15:48:47.095Z,4352
2016-08-16T15:49:47.815Z,4332
2016-08-16T15:50:48.517Z,4148
2016-08-16T15:51:47.790Z,4120
2016-08-16T15:52:48.486Z,4016
2016-08-16T15:53:48.486Z,3908
2016-08-16T15:54:48.484Z,3784
2016-08-16T15:55:48.484Z,3728
2016-08-16T15:56:48.462Z,3704
2016-08-16T15:57:47.734Z,3708
2016-08-16T15:58:47.745Z,3636
2016-08-16T15:59:47.735Z,3684
2016-08-16T16:00:47.719Z,3568
2016-08-16T16:01:48.435Z,3436
2016-08-16T16:02:47.719Z,3376
2016-08-16T16:03:48.465Z,3492
2016-08-16T16:04:48.405Z,3388
2016-08-16T16:05:48.462Z,3328
2016-08-16T16:06:47.683Z,3252
2016-08-16T16:07:47.749Z,3212
2016-08-16T16:08:48.387Z,3248
2016-08-16T16:09:48.384Z,3252
2016-08-16T16:10:47.659Z,3156
2016-08-16T16:11:48.358Z,3076
2016-08-16T16:12:46.922Z,2980
2016-08-16T16:13:47.627Z,2928
2016-08-16T16:14:48.388Z,2788
2016-08-16T16:15:47.627Z,2708
2016-08-16T16:16:47.624Z,2664
2016-08-16T16:17:47.595Z,2624
2016-08-16T16:18:48.306Z,2532
2016-08-16T16:19:48.454Z,2584
2016-08-16T16:20:46.859Z,2560
2016-08-16T16:21:47.575Z,2540
2016-08-16T16:22:47.585Z,2468
2016-08-16T16:23:47.545Z,2432
2016-08-16T16:24:47.598Z,2376
2016-08-16T16:25:47.546Z,2340
2016-08-16T16:26:46.799Z,2320
2016-08-16T16:27:47.528Z,2292
2016-08-16T16:28:48.249Z,2224
2016-08-16T16:29:47.511Z,2212
2016-08-16T16:30:47.508Z,2172
2016-08-16T16:31:47.498Z,2164
2016-08-16T16:32:48.282Z,2116
2016-08-16T16:33:48.208Z,2052
2016-08-16T16:34:48.157Z,2108
2016-08-16T16:35:46.098Z,2080
2016-08-16T16:36:46.725Z,2064
2016-08-16T16:37:48.139Z,2044
2016-08-16T16:38:47.426Z,2024
2016-08-16T16:39:48.123Z,2008
2016-08-16T16:40:48.203Z,1992
2016-08-16T16:41:45.966Z,1976
2016-08-16T16:42:48.120Z,1952
2016-08-16T16:43:47.386Z,1932
2016-08-16T16:44:47.376Z,1920
2016-08-16T16:45:46.657Z,1912
2016-08-16T16:46:47.357Z,1904
2016-08-16T16:47:46.627Z,1892
2016-08-16T16:48:47.329Z,1880
2016-08-16T16:49:47.325Z,1868
2016-08-16T16:50:47.332Z,1860
2016-08-16T16:51:48.033Z,1856
2016-08-16T16:52:47.315Z,1848
2016-08-16T16:53:48.005Z,1840
2016-08-16T16:54:47.289Z,1832
2016-08-16T16:55:47.268Z,1828
2016-08-16T16:56:47.987Z,1820
2016-08-16T16:57:48.006Z,1812
2016-08-16T16:58:47.973Z,1808
2016-08-16T16:59:46.594Z,1800
2016-08-16T17:00:47.958Z,1796
2016-08-16T17:01:47.946Z,1788
2016-08-16T17:02:47.927Z,1780
2016-08-16T17:03:46.559Z,1772
2016-08-16T17:04:47.218Z,1756
2016-08-16T17:05:47.186Z,1752
2016-08-16T17:06:47.205Z,1744
2016-08-16T17:07:46.445Z,1736
2016-08-16T17:08:47.877Z,1728
2016-08-16T17:09:47.167Z,1720
2016-08-16T17:10:47.845Z,1712
2016-08-16T17:11:47.136Z,1704
2016-08-16T17:12:46.416Z,1692
2016-08-16T17:13:45.696Z,1684
2016-08-16T17:14:47.829Z,1676
2016-08-16T17:15:46.396Z,1664
2016-08-16T17:16:47.822Z,1652
2016-08-16T17:17:47.842Z,1640
2016-08-16T17:18:45.636Z,1636
2016-08-16T17:19:47.779Z,1620
2016-08-16T17:20:47.775Z,1612
2016-08-16T17:21:47.774Z,1600
2016-08-16T17:22:47.786Z,1588
2016-08-16T17:23:46.309Z,1576
2016-08-16T17:24:47.737Z,1572
2016-08-16T17:25:47.007Z,1556
2016-08-16T17:26:47.710Z,1540
2016-08-16T17:27:46.984Z,1528
2016-08-16T17:28:47.002Z,1516
2016-08-16T17:29:47.682Z,1508
2016-08-16T17:30:46.319Z,1496
2016-08-16T17:31:46.941Z,1484
2016-08-16T17:32:46.243Z,1468
2016-08-16T17:33:47.003Z,1456
2016-08-16T17:34:46.942Z,1444
2016-08-16T17:35:46.959Z,1436
2016-08-16T17:36:46.909Z,1428
2016-08-16T17:37:47.629Z,1412
2016-08-16T17:38:46.158Z,1392
2016-08-16T17:39:47.576Z,1380
2016-08-16T17:40:46.146Z,1364
2016-08-16T17:41:47.570Z,1348
2016-08-16T17:42:46.846Z,1336
2016-08-16T17:43:46.846Z,1320
2016-08-16T17:44:46.106Z,1308
2016-08-16T17:45:46.098Z,1292
2016-08-16T17:46:47.529Z,1276
2016-08-16T17:47:46.789Z,1256
2016-08-16T17:48:47.506Z,1244
2016-08-16T17:49:47.497Z,1228
2016-08-16T17:50:46.836Z,1208
2016-08-16T17:51:46.045Z,1196
2016-08-16T17:52:47.470Z,1172
2016-08-16T17:53:46.742Z,1156
2016-08-16T17:54:47.526Z,1136
2016-08-16T17:55:46.699Z,1120
2016-08-16T17:56:46.706Z,1104
2016-08-16T17:57:47.448Z,1084
2016-08-16T17:58:46.736Z,1068
2016-08-16T17:59:46.689Z,1052
2016-08-16T18:00:46.737Z,1032
2016-08-16T18:01:45.957Z,1012
2016-08-16T18:02:46.707Z,996
2016-08-16T18:03:46.639Z,980
2016-08-16T18:04:47.357Z,960
2016-08-16T18:05:47.336Z,940
2016-08-16T18:06:47.359Z,920
2016-08-16T18:07:47.309Z,904
2016-08-16T18:08:47.320Z,888
2016-08-16T18:09:46.578Z,868
2016-08-16T18:10:46.586Z,852
2016-08-16T18:11:46.555Z,828
2016-08-16T18:12:46.536Z,812
2016-08-16T18:13:47.246Z,792
2016-08-16T18:14:47.245Z,772
2016-08-16T18:15:46.507Z,752
2016-08-16T18:16:46.487Z,736
2016-08-16T18:17:47.220Z,712
2016-08-16T18:18:45.776Z,696
2016-08-16T18:19:46.459Z,676
2016-08-16T18:20:46.460Z,660
2016-08-16T18:21:47.176Z,640
2016-08-16T18:22:45.707Z,624
2016-08-16T18:23:46.426Z,600
2016-08-16T18:24:47.147Z,580
2016-08-16T18:25:46.466Z,560
2016-08-16T18:26:44.959Z,540
2016-08-16T18:27:47.120Z,520
2016-08-16T18:28:46.367Z,500
2016-08-16T18:29:46.367Z,480
2016-08-16T18:30:45.640Z,460
2016-08-16T18:31:46.327Z,440
2016-08-16T18:32:46.333Z,420
2016-08-16T18:33:46.320Z,400
2016-08-16T18:34:47.058Z,380
2016-08-16T18:35:45.631Z,364
2016-08-16T18:36:46.283Z,348
2016-08-16T18:37:46.270Z,324
2016-08-16T18:38:46.266Z,308
2016-08-16T18:39:46.335Z,292
2016-08-16T18:40:46.256Z,272
2016-08-16T18:41:46.240Z,256
2016-08-16T18:42:46.956Z,236
2016-08-16T18:43:47.063Z,224
2016-08-16T18:44:46.940Z,204
2016-08-16T18:45:45.537Z,192
2016-08-16T18:46:47.055Z,180
2016-08-16T18:47:45.519Z,164
2016-08-16T18:48:45.475Z,152
2016-08-16T18:49:46.886Z,136
2016-08-16T18:50:45.429Z,124
2016-08-16T18:51:47.440Z,116
2016-08-16T18:52:46.558Z,100
2016-08-16T18:53:46.144Z,96
2016-08-16T18:54:46.828Z,84
2016-08-16T18:55:46.816Z,72
2016-08-16T18:56:46.086Z,64
2016-08-16T18:57:46.070Z,56
2016-08-16T18:58:46.268Z,52
2016-08-16T18:59:46.055Z,48
2016-08-16T19:00:46.778Z,40
2016-08-16T19:01:46.076Z,32
2016-08-16T19:02:46.735Z,32
2016-08-16T19:03:46.660Z,24
2016-08-16T19:04:46.698Z,24
2016-08-16T19:05:46.696Z,20
2016-08-16T19:06:45.963Z,16
2016-08-16T19:07:46.699Z,16
2016-08-16T19:08:45.242Z,12
2016-08-16T19:09:46.649Z,8
2016-08-16T19:10:46.661Z,8
2016-08-16T19:11:45.210Z,8
2016-08-16T19:12:44.471Z,4
2016-08-16T19:13:45.194Z,8
2016-08-16T19:14:45.167Z,4
2016-08-16T19:15:45.870Z,4
2016-08-16T19:16:46.589Z,4
2016-08-16T19:17:46.560Z,4
2016-08-16T19:18:45.848Z,4
2016-08-16T19:19:45.839Z,0